sensor_id;sensor_type;location;lat;lon;timestamp;pressure;altitude;pressure_sealevel;temperature;humidity
61318;BME280;47201;40.428;-8.436;2023-02-13T00:00:25;101684.75;;;13.04;69.76
61318;BME280;47201;40.428;-8.436;2023-02-13T00:02:26;101673.34;;;13.03;69.51
61318;BME280;47201;40.428;-8.436;2023-02-13T00:04:26;101678.63;;;12.98;69.74
61318;BME280;47201;40.428;-8.436;2023-02-13T00:06:27;101673.38;;;12.98;69.62
61318;BME280;47201;40.428;-8.436;2023-02-13T00:08:46;101686.50;;;13.00;69.47
61318;BME280;47201;40.428;-8.436;2023-02-13T00:10:47;101682.13;;;13.02;69.72
61318;BME280;47201;40.428;-8.436;2023-02-13T00:12:47;101701.38;;;13.01;69.65
61318;BME280;47201;40.428;-8.436;2023-02-13T00:14:48;101684.72;;;12.99;69.61
61318;BME280;47201;40.428;-8.436;2023-02-13T00:17:07;101678.63;;;13.01;69.54
61318;BME280;47201;40.428;-8.436;2023-02-13T00:19:09;101683.00;;;13.01;69.55
61318;BME280;47201;40.428;-8.436;2023-02-13T00:21:11;101691.75;;;13.00;69.70
61318;BME280;47201;40.428;-8.436;2023-02-13T00:23:12;101693.47;;;12.99;69.42
61318;BME280;47201;40.428;-8.436;2023-02-13T00:25:12;101684.75;;;13.04;69.13
61318;BME280;47201;40.428;-8.436;2023-02-13T00:27:17;101683.88;;;13.03;69.18
61318;BME280;47201;40.428;-8.436;2023-02-13T00:29:18;101673.38;;;13.01;69.41
61318;BME280;47201;40.428;-8.436;2023-02-13T00:31:19;101682.16;;;13.08;68.96
61318;BME280;47201;40.428;-8.436;2023-02-13T00:33:21;101688.25;;;13.09;68.75
61318;BME280;47201;40.428;-8.436;2023-02-13T00:35:21;101686.53;;;13.12;68.90
61318;BME280;47201;40.428;-8.436;2023-02-13T00:37:22;101687.41;;;13.07;69.20
61318;BME280;47201;40.428;-8.436;2023-02-13T00:39:25;101691.75;;;13.06;69.13
61318;BME280;47201;40.428;-8.436;2023-02-13T00:41:44;101676.88;;;13.05;69.22
61318;BME280;47201;40.428;-8.436;2023-02-13T00:44:03;101666.38;;;13.02;69.28
61318;BME280;47201;40.428;-8.436;2023-02-13T00:46:04;101681.25;;;13.08;69.02
61318;BME280;47201;40.428;-8.436;2023-02-13T00:48:24;101679.56;;;13.13;68.93
61318;BME280;47201;40.428;-8.436;2023-02-13T00:50:45;101680.38;;;13.09;68.98
61318;BME280;47201;40.428;-8.436;2023-02-13T00:53:04;101673.38;;;13.08;69.11
61318;BME280;47201;40.428;-8.436;2023-02-13T00:55:05;101676.91;;;13.11;68.93
61318;BME280;47201;40.428;-8.436;2023-02-13T00:57:24;101672.56;;;13.16;68.96
61318;BME280;47201;40.428;-8.436;2023-02-13T00:59:25;101673.44;;;13.14;69.19
61318;BME280;47201;40.428;-8.436;2023-02-13T01:01:27;101681.31;;;13.15;68.59
61318;BME280;47201;40.428;-8.436;2023-02-13T01:03:48;101676.91;;;13.14;68.87
61318;BME280;47201;40.428;-8.436;2023-02-13T01:05:49;101665.53;;;13.11;68.73
61318;BME280;47201;40.428;-8.436;2023-02-13T01:07:51;101669.94;;;13.16;68.63
61318;BME280;47201;40.428;-8.436;2023-02-13T01:09:51;101669.91;;;13.10;68.63
61318;BME280;47201;40.428;-8.436;2023-02-13T01:11:53;101666.41;;;13.13;68.91
61318;BME280;47201;40.428;-8.436;2023-02-13T01:13:55;101666.44;;;13.19;68.25
61318;BME280;47201;40.428;-8.436;2023-02-13T01:16:14;101662.94;;;13.15;68.52
61318;BME280;47201;40.428;-8.436;2023-02-13T01:18:17;101661.19;;;13.21;68.00
61318;BME280;47201;40.428;-8.436;2023-02-13T01:20:18;101662.97;;;13.25;68.04
61318;BME280;47201;40.428;-8.436;2023-02-13T01:22:19;101666.44;;;13.25;68.21
61318;BME280;47201;40.428;-8.436;2023-02-13T01:24:23;101662.06;;;13.26;68.41
61318;BME280;47201;40.428;-8.436;2023-02-13T01:26:23;101678.72;;;13.26;68.17
61318;BME280;47201;40.428;-8.436;2023-02-13T01:28:24;101670.84;;;13.26;68.30
61318;BME280;47201;40.428;-8.436;2023-02-13T01:30:44;101671.69;;;13.22;68.83
61318;BME280;47201;40.428;-8.436;2023-02-13T01:33:04;101669.94;;;13.26;68.45
61318;BME280;47201;40.428;-8.436;2023-02-13T01:35:25;101676.94;;;13.22;68.72
61318;BME280;47201;40.428;-8.436;2023-02-13T01:37:46;101672.59;;;13.29;68.47
61318;BME280;47201;40.428;-8.436;2023-02-13T01:39:47;101675.19;;;13.30;68.62
61318;BME280;47201;40.428;-8.436;2023-02-13T01:42:14;101672.59;;;13.32;68.61
61318;BME280;47201;40.428;-8.436;2023-02-13T01:46:40;101672.59;;;13.35;68.09
61318;BME280;47201;40.428;-8.436;2023-02-13T01:48:43;101691.88;;;13.37;68.43
61318;BME280;47201;40.428;-8.436;2023-02-13T01:50:48;101678.72;;;13.34;68.89
61318;BME280;47201;40.428;-8.436;2023-02-13T01:52:54;101674.41;;;13.41;68.31
61318;BME280;47201;40.428;-8.436;2023-02-13T01:54:57;101682.31;;;13.50;67.90
61318;BME280;47201;40.428;-8.436;2023-02-13T01:56:59;101671.78;;;13.53;68.01
61318;BME280;47201;40.428;-8.436;2023-02-13T01:59:02;101669.16;;;13.52;67.81
61318;BME280;47201;40.428;-8.436;2023-02-13T02:01:05;101667.41;;;13.51;68.24
61318;BME280;47201;40.428;-8.436;2023-02-13T02:03:08;101686.69;;;13.53;68.11
61318;BME280;47201;40.428;-8.436;2023-02-13T02:05:25;101675.31;;;13.60;67.97
61318;BME280;47201;40.428;-8.436;2023-02-13T02:07:29;101674.44;;;13.61;67.97
61318;BME280;47201;40.428;-8.436;2023-02-13T02:09:36;101681.44;;;13.60;68.33
61318;BME280;47201;40.428;-8.436;2023-02-13T02:13:49;101685.81;;;13.61;68.84
61318;BME280;47201;40.428;-8.436;2023-02-13T02:16:01;101690.19;;;13.62;68.46
61318;BME280;47201;40.428;-8.436;2023-02-13T02:18:21;101691.06;;;13.57;68.95
61318;BME280;47201;40.428;-8.436;2023-02-13T02:20:30;101698.06;;;13.53;69.35
61318;BME280;47201;40.428;-8.436;2023-02-13T02:38:42;101710.31;;;13.49;70.25
61318;BME280;47201;40.428;-8.436;2023-02-13T02:45:37;101717.28;;;13.41;71.00
61318;BME280;47201;40.428;-8.436;2023-02-13T02:50:15;101727.81;;;13.51;70.53
61318;BME280;47201;40.428;-8.436;2023-02-13T02:52:19;101730.47;;;13.54;70.35
61318;BME280;47201;40.428;-8.436;2023-02-13T02:54:26;101719.94;;;13.57;70.29
61318;BME280;47201;40.428;-8.436;2023-02-13T02:56:51;101724.34;;;13.58;70.28
61318;BME280;47201;40.428;-8.436;2023-02-13T02:59:00;101716.47;;;13.58;70.11
61318;BME280;47201;40.428;-8.436;2023-02-13T03:01:23;101718.22;;;13.59;70.18
61318;BME280;47201;40.428;-8.436;2023-02-13T03:03:43;101723.44;;;13.56;70.33
61318;BME280;47201;40.428;-8.436;2023-02-13T03:08:21;101722.59;;;13.54;70.39
61318;BME280;47201;40.428;-8.436;2023-02-13T03:10:41;101723.44;;;13.56;70.59
61318;BME280;47201;40.428;-8.436;2023-02-13T03:13:34;101715.56;;;13.53;70.71
61318;BME280;47201;40.428;-8.436;2023-02-13T03:15:38;101717.34;;;13.54;70.67
61318;BME280;47201;40.428;-8.436;2023-02-13T03:17:59;101718.22;;;13.51;71.15
61318;BME280;47201;40.428;-8.436;2023-02-13T03:20:33;101722.56;;;13.51;71.11
61318;BME280;47201;40.428;-8.436;2023-02-13T03:22:59;101715.53;;;13.43;71.63
61318;BME280;47201;40.428;-8.436;2023-02-13T03:27:08;101723.44;;;13.40;71.32
61318;BME280;47201;40.428;-8.436;2023-02-13T03:38:09;101709.44;;;13.43;71.53
61318;BME280;47201;40.428;-8.436;2023-02-13T03:40:14;101718.19;;;13.40;71.30
61318;BME280;47201;40.428;-8.436;2023-02-13T03:42:29;101715.53;;;13.39;71.41
61318;BME280;47201;40.428;-8.436;2023-02-13T03:46:33;101705.84;;;13.30;71.59
61318;BME280;47201;40.428;-8.436;2023-02-13T03:48:36;101706.75;;;13.32;71.83
61318;BME280;47201;40.428;-8.436;2023-02-13T03:50:56;101709.34;;;13.29;71.95
61318;BME280;47201;40.428;-8.436;2023-02-13T03:53:04;101711.94;;;13.26;72.33
61318;BME280;47201;40.428;-8.436;2023-02-13T03:55:26;101697.94;;;13.13;72.87
61318;BME280;47201;40.428;-8.436;2023-02-13T03:57:48;101702.28;;;13.12;73.06
61318;BME280;47201;40.428;-8.436;2023-02-13T04:00:11;101704.91;;;13.09;73.08
61318;BME280;47201;40.428;-8.436;2023-02-13T04:02:18;101698.75;;;13.04;73.12
61318;BME280;47201;40.428;-8.436;2023-02-13T04:06:27;101705.72;;;13.00;72.96
61318;BME280;47201;40.428;-8.436;2023-02-13T04:08:48;101705.75;;;13.02;73.11
61318;BME280;47201;40.428;-8.436;2023-02-13T04:11:10;101702.22;;;12.94;73.38
61318;BME280;47201;40.428;-8.436;2023-02-13T04:13:17;101704.00;;;13.01;72.56
61318;BME280;47201;40.428;-8.436;2023-02-13T04:17:47;101691.75;;;13.06;72.22
61318;BME280;47201;40.428;-8.436;2023-02-13T04:20:08;101688.28;;;13.10;71.56
61318;BME280;47201;40.428;-8.436;2023-02-13T04:22:10;101700.53;;;13.14;71.32
61318;BME280;47201;40.428;-8.436;2023-02-13T04:24:12;101697.91;;;13.11;71.63
61318;BME280;47201;40.428;-8.436;2023-02-13T04:26:15;101702.28;;;13.09;71.25
61318;BME280;47201;40.428;-8.436;2023-02-13T04:28:16;101702.31;;;13.15;71.04
61318;BME280;47201;40.428;-8.436;2023-02-13T04:30:17;101696.16;;;13.10;71.57
61318;BME280;47201;40.428;-8.436;2023-02-13T04:32:17;101701.41;;;13.13;71.19
61318;BME280;47201;40.428;-8.436;2023-02-13T04:34:18;101703.16;;;13.16;71.17
61318;BME280;47201;40.428;-8.436;2023-02-13T04:36:18;101705.78;;;13.11;71.35
61318;BME280;47201;40.428;-8.436;2023-02-13T04:38:19;101691.81;;;13.15;70.63
61318;BME280;47201;40.428;-8.436;2023-02-13T04:40:19;101698.81;;;13.18;70.54
61318;BME280;47201;40.428;-8.436;2023-02-13T04:42:38;101688.31;;;13.16;70.46
61318;BME280;47201;40.428;-8.436;2023-02-13T04:44:39;101695.31;;;13.17;70.22
61318;BME280;47201;40.428;-8.436;2023-02-13T04:46:58;101684.81;;;13.21;70.08
61318;BME280;47201;40.428;-8.436;2023-02-13T04:49:17;101686.56;;;13.20;70.24
61318;BME280;47201;40.428;-8.436;2023-02-13T04:51:17;101679.59;;;13.24;69.93
61318;BME280;47201;40.428;-8.436;2023-02-13T04:53:19;101684.84;;;13.24;70.07
61318;BME280;47201;40.428;-8.436;2023-02-13T04:55:20;101679.56;;;13.27;69.78
61318;BME280;47201;40.428;-8.436;2023-02-13T04:57:21;101688.31;;;13.26;70.02
61318;BME280;47201;40.428;-8.436;2023-02-13T04:59:21;101681.34;;;13.28;69.78
61318;BME280;47201;40.428;-8.436;2023-02-13T05:01:22;101689.22;;;13.26;69.84
61318;BME280;47201;40.428;-8.436;2023-02-13T05:03:22;101688.31;;;13.26;70.07
61318;BME280;47201;40.428;-8.436;2023-02-13T05:05:25;101688.31;;;13.26;69.74
61318;BME280;47201;40.428;-8.436;2023-02-13T05:07:25;101697.97;;;13.28;69.76
61318;BME280;47201;40.428;-8.436;2023-02-13T05:09:26;101684.84;;;13.33;69.44
61318;BME280;47201;40.428;-8.436;2023-02-13T05:11:26;101689.22;;;13.28;70.16
61318;BME280;47201;40.428;-8.436;2023-02-13T05:13:27;101687.47;;;13.31;69.52
61318;BME280;47201;40.428;-8.436;2023-02-13T05:15:27;101694.50;;;13.36;69.57
61318;BME280;47201;40.428;-8.436;2023-02-13T05:17:28;101683.09;;;13.35;69.36
61318;BME280;47201;40.428;-8.436;2023-02-13T05:19:28;101692.78;;;13.41;69.05
61318;BME280;47201;40.428;-8.436;2023-02-13T05:21:29;101684.00;;;13.39;69.22
61318;BME280;47201;40.428;-8.436;2023-02-13T05:23:47;101694.47;;;13.32;69.39
61318;BME280;47201;40.428;-8.436;2023-02-13T05:25:48;101689.22;;;13.34;69.62
61318;BME280;47201;40.428;-8.436;2023-02-13T05:27:49;101700.63;;;13.36;69.87
61318;BME280;47201;40.428;-8.436;2023-02-13T05:29:49;101687.50;;;13.35;69.66
61318;BME280;47201;40.428;-8.436;2023-02-13T05:31:54;101693.63;;;13.32;69.44
61318;BME280;47201;40.428;-8.436;2023-02-13T05:33:55;101694.53;;;13.40;69.38
61318;BME280;47201;40.428;-8.436;2023-02-13T05:36:14;101699.75;;;13.37;69.28
61318;BME280;47201;40.428;-8.436;2023-02-13T05:38:34;101705.91;;;13.39;69.45
61318;BME280;47201;40.428;-8.436;2023-02-13T05:40:36;101699.75;;;13.36;69.48
61318;BME280;47201;40.428;-8.436;2023-02-13T05:42:55;101698.91;;;13.38;69.60
61318;BME280;47201;40.428;-8.436;2023-02-13T05:45:15;101703.25;;;13.35;69.69
61318;BME280;47201;40.428;-8.436;2023-02-13T05:47:34;101705.88;;;13.36;69.40
61318;BME280;47201;40.428;-8.436;2023-02-13T05:49:35;101702.41;;;13.39;69.35
61318;BME280;47201;40.428;-8.436;2023-02-13T05:51:35;101705.88;;;13.36;69.76
61318;BME280;47201;40.428;-8.436;2023-02-13T05:53:36;101714.66;;;13.38;69.53
61318;BME280;47201;40.428;-8.436;2023-02-13T05:55:55;101704.09;;;13.35;69.85
61318;BME280;47201;40.428;-8.436;2023-02-13T05:57:56;101712.00;;;13.33;69.85
61318;BME280;47201;40.428;-8.436;2023-02-13T05:59:57;101712.88;;;13.31;69.89
61318;BME280;47201;40.428;-8.436;2023-02-13T06:01:57;101713.75;;;13.36;69.50
61318;BME280;47201;40.428;-8.436;2023-02-13T06:03:58;101714.63;;;13.32;69.54
61318;BME280;47201;40.428;-8.436;2023-02-13T06:05:59;101718.13;;;13.36;69.21
61318;BME280;47201;40.428;-8.436;2023-02-13T06:07:59;101706.75;;;13.33;69.58
61318;BME280;47201;40.428;-8.436;2023-02-13T06:10:04;101718.09;;;13.26;69.91
61318;BME280;47201;40.428;-8.436;2023-02-13T06:12:05;101724.22;;;13.24;70.12
61318;BME280;47201;40.428;-8.436;2023-02-13T06:14:05;101723.34;;;13.28;69.63
61318;BME280;47201;40.428;-8.436;2023-02-13T06:16:06;101720.72;;;13.34;69.16
61318;BME280;47201;40.428;-8.436;2023-02-13T06:18:08;101722.50;;;13.32;69.62
61318;BME280;47201;40.428;-8.436;2023-02-13T06:20:27;101741.75;;;13.32;69.57
61318;BME280;47201;40.428;-8.436;2023-02-13T06:22:47;101739.97;;;13.25;69.66
61318;BME280;47201;40.428;-8.436;2023-02-13T06:24:47;101733.00;;;13.35;68.96
61318;BME280;47201;40.428;-8.436;2023-02-13T06:27:06;101740.00;;;13.35;69.21
61318;BME280;47201;40.428;-8.436;2023-02-13T06:29:08;101729.50;;;13.36;69.20
61318;BME280;47201;40.428;-8.436;2023-02-13T06:31:08;101731.25;;;13.34;68.84
61318;BME280;47201;40.428;-8.436;2023-02-13T06:33:27;101728.69;;;13.40;68.56
61318;BME280;47201;40.428;-8.436;2023-02-13T06:35:46;101731.28;;;13.39;68.47
61318;BME280;47201;40.428;-8.436;2023-02-13T06:37:48;101739.19;;;13.40;68.52
61318;BME280;47201;40.428;-8.436;2023-02-13T06:39:49;101740.00;;;13.36;68.82
61318;BME280;47201;40.428;-8.436;2023-02-13T06:41:49;101733.88;;;13.34;69.21
61318;BME280;47201;40.428;-8.436;2023-02-13T06:43:51;101742.59;;;13.33;69.25
61318;BME280;47201;40.428;-8.436;2023-02-13T06:45:51;101741.69;;;13.18;70.06
61318;BME280;47201;40.428;-8.436;2023-02-13T06:47:53;101740.81;;;13.20;70.01
61318;BME280;47201;40.428;-8.436;2023-02-13T06:49:53;101739.06;;;13.18;69.59
61318;BME280;47201;40.428;-8.436;2023-02-13T06:51:54;101739.94;;;13.22;69.74
61318;BME280;47201;40.428;-8.436;2023-02-13T06:53:56;101752.19;;;13.15;69.92
61318;BME280;47201;40.428;-8.436;2023-02-13T06:56:06;101752.19;;;13.17;69.95
61318;BME280;47201;40.428;-8.436;2023-02-13T06:58:08;101746.03;;;13.07;70.36
61318;BME280;47201;40.428;-8.436;2023-02-13T07:00:10;101746.84;;;13.03;70.48
61318;BME280;47201;40.428;-8.436;2023-02-13T07:02:12;101750.38;;;13.02;70.19
61318;BME280;47201;40.428;-8.436;2023-02-13T07:04:13;101748.59;;;12.98;70.57
61318;BME280;47201;40.428;-8.436;2023-02-13T07:06:18;101738.97;;;12.97;70.35
61318;BME280;47201;40.428;-8.436;2023-02-13T07:08:39;101745.91;;;12.89;70.80
61318;BME280;47201;40.428;-8.436;2023-02-13T07:10:59;101746.75;;;12.80;71.32
61318;BME280;47201;40.428;-8.436;2023-02-13T07:13:02;101751.97;;;12.74;71.63
61318;BME280;47201;40.428;-8.436;2023-02-13T07:15:22;101759.84;;;12.75;71.29
61318;BME280;47201;40.428;-8.436;2023-02-13T07:17:24;101756.34;;;12.73;71.30
61318;BME280;47201;40.428;-8.436;2023-02-13T07:19:25;101749.31;;;12.69;71.66
61318;BME280;47201;40.428;-8.436;2023-02-13T07:21:44;101752.75;;;12.62;71.72
61318;BME280;47201;40.428;-8.436;2023-02-13T07:23:45;101756.25;;;12.61;71.73
61318;BME280;47201;40.428;-8.436;2023-02-13T07:25:45;101765.78;;;12.49;72.00
61318;BME280;47201;40.428;-8.436;2023-02-13T07:27:46;101767.56;;;12.50;71.70
61318;BME280;47201;40.428;-8.436;2023-02-13T07:29:48;101764.03;;;12.50;71.72
61318;BME280;47201;40.428;-8.436;2023-02-13T07:32:07;101769.31;;;12.54;71.25
61318;BME280;47201;40.428;-8.436;2023-02-13T07:34:08;101769.28;;;12.48;71.59
61318;BME280;47201;40.428;-8.436;2023-02-13T07:36:08;101771.91;;;12.50;70.84
61318;BME280;47201;40.428;-8.436;2023-02-13T07:38:09;101770.19;;;12.53;70.86
61318;BME280;47201;40.428;-8.436;2023-02-13T07:40:09;101778.94;;;12.56;70.44
61318;BME280;47201;40.428;-8.436;2023-02-13T07:42:10;101787.69;;;12.53;70.36
61318;BME280;47201;40.428;-8.436;2023-02-13T07:44:10;101786.81;;;12.56;70.13
61318;BME280;47201;40.428;-8.436;2023-02-13T07:46:12;101790.25;;;12.48;70.52
61318;BME280;47201;40.428;-8.436;2023-02-13T07:48:12;101792.03;;;12.49;70.34
61318;BME280;47201;40.428;-8.436;2023-02-13T07:50:13;101793.75;;;12.46;70.30
61318;BME280;47201;40.428;-8.436;2023-02-13T07:52:14;101806.81;;;12.43;70.21
61318;BME280;47201;40.428;-8.436;2023-02-13T07:54:14;101796.31;;;12.41;70.32
61318;BME280;47201;40.428;-8.436;2023-02-13T07:56:15;101804.22;;;12.47;69.81
61318;BME280;47201;40.428;-8.436;2023-02-13T07:58:15;101806.00;;;12.50;69.54
61318;BME280;47201;40.428;-8.436;2023-02-13T08:00:16;101809.53;;;12.55;69.32
61318;BME280;47201;40.428;-8.436;2023-02-13T08:02:17;101808.72;;;12.61;68.45
61318;BME280;47201;40.428;-8.436;2023-02-13T08:04:17;101814.91;;;12.70;68.26
61318;BME280;47201;40.428;-8.436;2023-02-13T08:06:39;101822.00;;;12.89;67.16
61318;BME280;47201;40.428;-8.436;2023-02-13T08:08:40;101818.56;;;12.96;66.49
61318;BME280;47201;40.428;-8.436;2023-02-13T08:10:56;101818.63;;;13.05;65.74
61318;BME280;47201;40.428;-8.436;2023-02-13T08:13:15;101821.34;;;13.21;64.60
61318;BME280;47201;40.428;-8.436;2023-02-13T08:15:16;101817.91;;;13.31;64.60
61318;BME280;47201;40.428;-8.436;2023-02-13T08:17:16;101823.25;;;13.42;64.02
61318;BME280;47201;40.428;-8.436;2023-02-13T08:19:17;101831.22;;;13.62;63.25
61318;BME280;47201;40.428;-8.436;2023-02-13T08:21:36;101822.47;;;13.71;62.62
61318;BME280;47201;40.428;-8.436;2023-02-13T08:23:37;101824.28;;;13.81;62.39
61318;BME280;47201;40.428;-8.436;2023-02-13T08:25:37;101830.41;;;13.92;61.97
61318;BME280;47201;40.428;-8.436;2023-02-13T08:27:38;101830.44;;;13.97;61.89
61318;BME280;47201;40.428;-8.436;2023-02-13T08:29:39;101832.19;;;14.10;61.98
61318;BME280;47201;40.428;-8.436;2023-02-13T08:31:42;101846.22;;;14.09;61.41
61318;BME280;47201;40.428;-8.436;2023-02-13T08:33:43;101838.34;;;14.08;61.73
61318;BME280;47201;40.428;-8.436;2023-02-13T08:35:43;101842.69;;;14.07;62.22
61318;BME280;47201;40.428;-8.436;2023-02-13T08:37:44;101840.09;;;14.10;62.17
61318;BME280;47201;40.428;-8.436;2023-02-13T08:39:45;101841.03;;;14.59;60.82
61318;BME280;47201;40.428;-8.436;2023-02-13T08:41:45;101857.59;;;15.34;57.67
61318;BME280;47201;40.428;-8.436;2023-02-13T08:43:46;101837.13;;;16.01;55.46
61318;BME280;47201;40.428;-8.436;2023-02-13T08:45:46;101847.16;;;16.74;53.15
61318;BME280;47201;40.428;-8.436;2023-02-13T08:48:05;101851.19;;;17.10;52.58
61318;BME280;47201;40.428;-8.436;2023-02-13T08:50:07;101852.44;;;17.58;52.54
61318;BME280;47201;40.428;-8.436;2023-02-13T08:52:07;101858.81;;;18.12;51.71
61318;BME280;47201;40.428;-8.436;2023-02-13T08:54:08;101848.00;;;18.27;52.18
61318;BME280;47201;40.428;-8.436;2023-02-13T08:56:27;101867.22;;;17.74;54.61
61318;BME280;47201;40.428;-8.436;2023-02-13T08:58:28;101861.34;;;17.51;56.53
61318;BME280;47201;40.428;-8.436;2023-02-13T09:00:29;101857.81;;;18.19;55.14
61318;BME280;47201;40.428;-8.436;2023-02-13T09:02:29;101856.03;;;18.74;54.41
61318;BME280;47201;40.428;-8.436;2023-02-13T09:04:30;101868.84;;;19.00;54.79
61318;BME280;47201;40.428;-8.436;2023-02-13T09:06:31;101869.88;;;18.92;55.50
61318;BME280;47201;40.428;-8.436;2023-02-13T09:08:49;101861.72;;;19.04;56.89
61318;BME280;47201;40.428;-8.436;2023-02-13T09:10:54;101873.38;;;19.42;56.21
61318;BME280;47201;40.428;-8.436;2023-02-13T09:12:55;101863.69;;;19.82;55.84
61318;BME280;47201;40.428;-8.436;2023-02-13T09:14:56;101867.38;;;20.53;54.63
61318;BME280;47201;40.428;-8.436;2023-02-13T09:16:56;101868.03;;;20.99;54.61
61318;BME280;47201;40.428;-8.436;2023-02-13T09:18:57;101871.78;;;21.55;53.81
61318;BME280;47201;40.428;-8.436;2023-02-13T09:20:58;101873.00;;;21.75;54.37
61318;BME280;47201;40.428;-8.436;2023-02-13T09:22:59;101868.38;;;21.50;55.67
61318;BME280;47201;40.428;-8.436;2023-02-13T09:25:00;101867.78;;;21.71;55.86
61318;BME280;47201;40.428;-8.436;2023-02-13T09:27:03;101847.47;;;21.69;57.11
61318;BME280;47201;40.428;-8.436;2023-02-13T09:29:04;101863.84;;;21.53;58.48
61318;BME280;47201;40.428;-8.436;2023-02-13T09:31:12;101868.56;;;21.75;58.11
61318;BME280;47201;40.428;-8.436;2023-02-13T09:33:14;101869.41;;;21.77;59.08
61318;BME280;47201;40.428;-8.436;2023-02-13T09:35:15;101870.31;;;21.76;60.17
61318;BME280;47201;40.428;-8.436;2023-02-13T09:37:15;101878.44;;;21.71;60.46
61318;BME280;47201;40.428;-8.436;2023-02-13T09:39:16;101869.03;;;21.60;61.79
61318;BME280;47201;40.428;-8.436;2023-02-13T09:41:18;101868.31;;;21.83;61.86
61318;BME280;47201;40.428;-8.436;2023-02-13T09:45:20;101884.53;;;21.44;63.59
61318;BME280;47201;40.428;-8.436;2023-02-13T09:47:34;101885.31;;;20.43;66.49
61318;BME280;47201;40.428;-8.436;2023-02-13T09:49:36;101883.25;;;19.34;70.17
61318;BME280;47201;40.428;-8.436;2023-02-13T09:51:38;101890.97;;;18.43;73.27
61318;BME280;47201;40.428;-8.436;2023-02-13T09:53:40;101882.25;;;17.71;75.47
61318;BME280;47201;40.428;-8.436;2023-02-13T09:55:44;101888.28;;;18.45;74.13
61318;BME280;47201;40.428;-8.436;2023-02-13T09:58:16;101875.25;;;18.85;72.85
61318;BME280;47201;40.428;-8.436;2023-02-13T10:00:28;101877.09;;;19.74;70.65
61318;BME280;47201;40.428;-8.436;2023-02-13T10:07:25;101872.72;;;23.69;60.52
61318;BME280;47201;40.428;-8.436;2023-02-13T10:09:39;101877.22;;;24.14;60.03
61318;BME280;47201;40.428;-8.436;2023-02-13T10:11:52;101876.72;;;24.71;58.99
61318;BME280;47201;40.428;-8.436;2023-02-13T10:18:09;101874.94;;;25.32;59.16
61318;BME280;47201;40.428;-8.436;2023-02-13T10:24:37;101878.16;;;22.38;66.95
61318;BME280;47201;40.428;-8.436;2023-02-13T10:26:41;101886.09;;;21.82;68.84
61318;BME280;47201;40.428;-8.436;2023-02-13T10:28:54;101884.59;;;21.07;70.71
61318;BME280;47201;40.428;-8.436;2023-02-13T10:31:16;101886.94;;;20.87;72.05
61318;BME280;47201;40.428;-8.436;2023-02-13T10:33:19;101888.19;;;20.70;72.57
61318;BME280;47201;40.428;-8.436;2023-02-13T10:35:23;101845.09;;;20.23;73.77
61318;BME280;47201;40.428;-8.436;2023-02-13T10:37:27;101887.03;;;19.64;75.13
61318;BME280;47201;40.428;-8.436;2023-02-13T10:39:28;101889.16;;;19.48;75.89
61318;BME280;47201;40.428;-8.436;2023-02-13T10:42:14;101892.19;;;20.15;74.29
61318;BME280;47201;40.428;-8.436;2023-02-13T10:43:57;101886.34;;;21.08;72.58
61318;BME280;47201;40.428;-8.436;2023-02-13T10:56:50;101890.28;;;25.08;62.86
61318;BME280;47201;40.428;-8.436;2023-02-13T10:59:07;101892.84;;;25.11;63.42
61318;BME280;47201;40.428;-8.436;2023-02-13T11:01:24;101898.31;;;24.65;64.36
61318;BME280;47201;40.428;-8.436;2023-02-13T11:03:30;101883.94;;;24.24;66.02
61318;BME280;47201;40.428;-8.436;2023-02-13T11:05:32;101877.47;;;23.84;66.97
61318;BME280;47201;40.428;-8.436;2023-02-13T11:07:35;101891.75;;;23.83;67.09
61318;BME280;47201;40.428;-8.436;2023-02-13T11:09:37;101882.38;;;23.97;67.33
61318;BME280;47201;40.428;-8.436;2023-02-13T11:11:40;101880.78;;;24.15;66.50
61318;BME280;47201;40.428;-8.436;2023-02-13T11:13:42;101889.09;;;24.74;65.99
61318;BME280;47201;40.428;-8.436;2023-02-13T11:15:49;101883.25;;;25.26;64.34
61318;BME280;47201;40.428;-8.436;2023-02-13T11:17:56;101880.44;;;25.69;64.18
61318;BME280;47201;40.428;-8.436;2023-02-13T11:19:58;101878.47;;;25.91;64.33
61318;BME280;47201;40.428;-8.436;2023-02-13T11:24:22;101879.00;;;25.61;64.65
61318;BME280;47201;40.428;-8.436;2023-02-13T11:28:28;101891.25;;;24.42;66.30
61318;BME280;47201;40.428;-8.436;2023-02-13T11:32:31;101892.22;;;24.18;67.38
61318;BME280;47201;40.428;-8.436;2023-02-13T11:34:33;101880.72;;;23.92;67.88
61318;BME280;47201;40.428;-8.436;2023-02-13T11:36:34;101876.88;;;23.03;69.97
61318;BME280;47201;40.428;-8.436;2023-02-13T11:38:34;101883.94;;;22.52;70.81
61318;BME280;47201;40.428;-8.436;2023-02-13T11:40:35;101877.78;;;22.22;72.04
61318;BME280;47201;40.428;-8.436;2023-02-13T11:42:36;101880.19;;;22.29;72.53
61318;BME280;47201;40.428;-8.436;2023-02-13T11:45:01;101874.47;;;22.95;71.50
61318;BME280;47201;40.428;-8.436;2023-02-13T11:47:06;101884.91;;;23.28;70.37
61318;BME280;47201;40.428;-8.436;2023-02-13T11:49:11;101868.50;;;23.14;71.00
61318;BME280;47201;40.428;-8.436;2023-02-13T11:51:14;101883.19;;;23.75;70.51
61318;BME280;47201;40.428;-8.436;2023-02-13T11:53:19;101878.28;;;23.39;70.35
61318;BME280;47201;40.428;-8.436;2023-02-13T11:59:30;101883.28;;;20.55;75.73
61318;BME280;47201;40.428;-8.436;2023-02-13T12:01:31;101879.44;;;20.31;76.65
61318;BME280;47201;40.428;-8.436;2023-02-13T12:03:32;101868.63;;;20.38;77.00
61318;BME280;47201;40.428;-8.436;2023-02-13T12:05:33;101872.88;;;20.45;77.20
61318;BME280;47201;40.428;-8.436;2023-02-13T12:07:34;101873.16;;;19.95;77.38
61318;BME280;47201;40.428;-8.436;2023-02-13T12:09:34;101865.88;;;19.63;78.68
61318;BME280;47201;40.428;-8.436;2023-02-13T12:11:57;101852.91;;;19.91;77.66
61318;BME280;47201;40.428;-8.436;2023-02-13T12:14:01;101862.19;;;19.70;78.12
61318;BME280;47201;40.428;-8.436;2023-02-13T12:16:03;101860.28;;;19.33;79.18